SBPCSBKP

Guest
Details From SBPC - POCOS DE CALDAS
To SBKP - Sao Paulo Viracopos
Flight Number -
Tags generated
Created
Modified
Stats Distance 77 nm / 142 km
Max Altitude 5,800 ft / 1,768 m
Waypoints 3
Social Downloads 1
Likes 0
Share VATSIM

Download

Looking for another format? Having issues loading an existing format? Contact us
Advertisement - Login to hide

Notes

Basic altitude profile: - Ascent Rate: 500ft/min - Ascent Speed: 100kts - Cruise Altitude: 5800ft - Cruise Speed: 120kts - Descent Rate: 500ft/min - Descent Speed: 100kts

Route

SBPC RAVEL SBKP

ID Type Via Altitude Latitude Longitude Leg Dist Tot Dist Heading (true) Name
O SBPC APT - 0 ft / 0 m -21.84301˚ -46.56791˚ - 0 nm - POCOS DE CALDAS
RAVEL FIX - 5,800 ft / 1,768 m -22.59667˚ -46.93000˚ 49 nm 49 nm 204° / 204° -
O SBKP APT - 0 ft / 0 m -23.00738˚ -47.13452˚ 27 nm 76 nm 205° / 205° Sao Paulo Viracopos

Altitude Profile

Advertisement - Login to hide

SBPC

Details ICAO SBPC (POO)
Name POCOS DE CALDAS
Region Brazil
Timezone America/Sao_Paulo (UTC-2.0)
Stats Elevation 4,135 ft / 1,260 m (AMSL)
Location -21.843014° -46.567915°
Runways 1
Magnetic Variation 21.625° W

METAR

SBPC 151000Z 08004KT 9999 BKN010 21/19 Q1020

Decode

TAF

Not found

Departure Runways

ID Width Length Bearing (true) Bearing (mag) Surface Threshold Offset Overrun Length
09 98 ft / 30 m 4,101 ft / 1,250 m 69.82° 91.44° Asphalt 0 ft / 0 m 0 ft / 0 m
27 98 ft / 30 m 4,101 ft / 1,250 m 249.81° 271.43° Asphalt 0 ft / 0 m 0 ft / 0 m

SBKP

Details ICAO SBKP (VCP)
Name Sao Paulo Viracopos
Region Brazil
Timezone America/Sao_Paulo (UTC-2.0)
Stats Elevation 2,170 ft / 661 m (AMSL)
Location -23.007383° -47.134522°
Runways 1
Magnetic Variation 21.195° W

METAR

SBKP 151000Z 12003KT 8000 FEW040 23/16 Q1016

Decode

TAF

TAF SBKP 150100Z 1506/1606 13007KT CAVOK TN19/1508Z TX31/1517Z PROB30 1508/1511 5000 BR SCT013 BECMG 1511/1513 05005KT SCT030 BECMG 1514/1516 34005KT SCT040 PROB30 1516/1520 TS BKN040 FEW045CB BECMG 1520/1522 15005KT CAVOK RMK PHH

Decode

Destination Runways

ID Width Length Bearing (true) Bearing (mag) Surface Threshold Offset Overrun Length
15 148 ft / 45 m 10,639 ft / 3,243 m 127.91° 149.10° Asphalt 0 ft / 0 m 205 ft / 62 m
33 148 ft / 45 m 10,639 ft / 3,243 m 307.90° 329.09° Asphalt 0 ft / 0 m 205 ft / 62 m

Approach Navaids

Runway Type Ident Frequency Range Bearing (true) Bearing (mag) Slope Elevation
15 Localiser IKP 110.30 MHz 18 nm / 33 km 127.95° 149.15° - 2,170 ft / 661 m (AMSL)
15 Glidescope IKP 110.30 MHz 10 nm / 19 km 127.90° 149.10° 3.00° 2,170 ft / 661 m (AMSL)

Popular Alternatives